Time;durP1;ratioP1;P1;durP2;ratioP2;P2;SDS_P1;SDS_P2;PMS_P1;PMS_P2;Temp;Humidity;BMP_temperature;BMP_pressure;BME280_temperature;BME280_humidity;BME280_pressure;Samples;Min_cycle;Max_cycle;Signal;HPM_P1;HPM_P2
2022/06/16 00:02:50;;;;;;;14.05;6.93;;;;;;;;;;9505118;30;20139;-65
2022/06/16 00:07:44;;;;;;;16.10;6.47;;;;;;;;;;9504337;30;20067;-65
2022/06/16 00:12:38;;;;;;;9.27;6.20;;;;;;;;;;9504970;30;20052;-66
2022/06/16 00:17:32;;;;;;;15.52;6.30;;;;;;;;;;9504371;30;20121;-66
2022/06/16 00:22:27;;;;;;;7.88;5.72;;;;;;;;;;9501722;30;20472;-66
2022/06/16 00:27:22;;;;;;;11.15;6.82;;;;;;;;;;9503600;30;20509;-67
2022/06/16 00:32:16;;;;;;;10.10;7.55;;;;;;;;;;9503970;30;20052;-67
2022/06/16 00:37:09;;;;;;;15.18;8.80;;;;;;;;;;9504040;30;20120;-67
2022/06/16 00:42:13;;;;;;;13.85;7.72;;;;;;;;;;9488235;30;20060;-68
2022/06/16 00:47:07;;;;;;;14.65;9.30;;;;;;;;;;9504113;30;20046;-67
2022/06/16 00:52:09;;;;;;;10.82;9.85;;;;;;;;;;9504006;30;20119;-68
2022/06/16 00:57:08;;;;;;;12.50;10.75;;;;;;;;;;9486925;30;20517;-68
2022/06/16 01:02:03;;;;;;;15.93;10.52;;;;;;;;;;9490110;30;20058;-67
2022/06/16 01:07:17;;;;;;;19.08;12.05;;;;;;;;;;9504761;30;20064;-67
2022/06/16 01:17:33;;;;;;;17.40;9.25;;;;;;;;;;9506514;30;20051;-67
2022/06/16 01:22:51;;;;;;;13.88;9.40;;;;;;;;;;9492343;30;20143;-68
2022/06/16 01:28:16;;;;;;;14.43;10.32;;;;;;;;;;9492802;30;20113;-67
2022/06/16 01:33:39;;;;;;;13.13;11.68;;;;;;;;;;9503209;30;20058;-68
2022/06/16 01:38:55;;;;;;;20.55;13.13;;;;;;;;;;9503346;30;20064;-67
2022/06/16 01:44:14;;;;;;;16.73;11.77;;;;;;;;;;9500732;30;20060;-68
2022/06/16 01:49:23;;;;;;;14.73;13.20;;;;;;;;;;9482494;30;20052;-68
2022/06/16 01:54:20;;;;;;;14.23;12.75;;;;;;;;;;9504638;30;20472;-67
2022/06/16 02:00:00;;;;;;;18.52;14.77;;;;;;;;;;9482111;30;20068;-66
2022/06/16 02:04:58;;;;;;;19.42;13.27;;;;;;;;;;9515088;30;20056;-67
2022/06/16 02:09:55;;;;;;;25.37;14.57;;;;;;;;;;9492003;30;20146;-67
2022/06/16 02:14:51;;;;;;;21.17;14.85;;;;;;;;;;9508131;30;20671;-66
2022/06/16 02:20:08;;;;;;;20.17;15.27;;;;;;;;;;9511488;30;20114;-66
2022/06/16 02:25:02;;;;;;;24.33;14.63;;;;;;;;;;9512253;30;20456;-66
2022/06/16 02:29:55;;;;;;;27.30;14.38;;;;;;;;;;9510355;30;20070;-66
2022/06/16 02:35:20;;;;;;;20.90;15.02;;;;;;;;;;9493252;30;20064;-66
2022/06/16 02:40:23;;;;;;;18.45;14.20;;;;;;;;;;9498182;30;20139;-66
2022/06/16 02:46:05;;;;;;;20.10;12.80;;;;;;;;;;9500371;30;20063;-67
2022/06/16 02:51:22;;;;;;;20.95;14.75;;;;;;;;;;9495923;30;20059;-66
2022/06/16 02:56:30;;;;;;;20.75;13.73;;;;;;;;;;9507310;30;20056;-66
2022/06/16 03:01:23;;;;;;;20.00;13.70;;;;;;;;;;9505868;30;20100;-67
2022/06/16 03:06:17;;;;;;;18.00;14.18;;;;;;;;;;9479202;30;20052;-66
2022/06/16 03:11:16;;;;;;;22.67;13.38;;;;;;;;;;9504452;30;20058;-66
2022/06/16 03:16:11;;;;;;;21.45;13.93;;;;;;;;;;9490740;30;20045;-66
2022/06/16 03:21:05;;;;;;;21.98;15.90;;;;;;;;;;9506794;30;20056;-66
2022/06/16 03:26:00;;;;;;;17.80;15.93;;;;;;;;;;9496539;30;20501;-67
2022/06/16 03:30:55;;;;;;;20.95;16.80;;;;;;;;;;9499645;30;20090;-67
2022/06/16 03:35:49;;;;;;;21.58;16.70;;;;;;;;;;9515043;30;20091;-67
2022/06/16 03:40:42;;;;;;;20.20;15.32;;;;;;;;;;9509103;30;20060;-66
2022/06/16 03:45:38;;;;;;;19.92;16.48;;;;;;;;;;9498772;30;20083;-66
2022/06/16 03:50:32;;;;;;;21.77;17.55;;;;;;;;;;9506527;30;20060;-66
2022/06/16 03:55:28;;;;;;;21.95;18.15;;;;;;;;;;9504266;30;20187;-66
2022/06/16 04:00:22;;;;;;;24.85;17.58;;;;;;;;;;9490919;30;20056;-66
2022/06/16 04:05:26;;;;;;;22.88;18.25;;;;;;;;;;9509254;30;20153;-66
2022/06/16 04:10:29;;;;;;;18.90;17.05;;;;;;;;;;9490302;30;20056;-66
2022/06/16 04:15:27;;;;;;;17.63;15.32;;;;;;;;;;9488320;30;20058;-67
2022/06/16 04:20:22;;;;;;;15.60;13.98;;;;;;;;;;9491316;30;20056;-67
2022/06/16 04:25:30;;;;;;;17.98;16.00;;;;;;;;;;9488663;30;20421;-66
2022/06/16 04:30:44;;;;;;;16.17;14.45;;;;;;;;;;9504130;30;20059;-67
2022/06/16 04:35:38;;;;;;;17.50;15.20;;;;;;;;;;9504638;30;20052;-67
2022/06/16 04:40:34;;;;;;;16.42;14.82;;;;;;;;;;9474744;30;20056;-67
2022/06/16 04:45:32;;;;;;;;;;;;;;;;;;9473213;30;20108;-66
2022/06/16 04:50:27;;;;;;;20.35;16.73;;;;;;;;;;9476181;30;19927;-67
2022/06/16 04:55:22;;;;;;;19.48;15.93;;;;;;;;;;9476456;30;20114;-67
2022/06/16 05:00:30;;;;;;;18.40;16.67;;;;;;;;;;9493610;30;20080;-67
2022/06/16 05:05:48;;;;;;;19.95;17.42;;;;;;;;;;9485236;30;20056;-67
2022/06/16 05:10:48;;;;;;;18.55;16.65;;;;;;;;;;9461897;30;20064;-67
2022/06/16 05:16:01;;;;;;;19.55;16.70;;;;;;;;;;9476469;30;20135;-66
2022/06/16 05:21:10;;;;;;;19.17;17.38;;;;;;;;;;9474589;30;20070;-67
2022/06/16 05:26:09;;;;;;;19.33;17.63;;;;;;;;;;9475314;30;20565;-67
2022/06/16 05:31:23;;;;;;;18.33;16.13;;;;;;;;;;9459400;30;20061;-67
2022/06/16 05:36:34;;;;;;;20.77;16.27;;;;;;;;;;9477383;30;20079;-67
2022/06/16 05:41:48;;;;;;;17.60;15.75;;;;;;;;;;9509788;30;20060;-66
2022/06/16 05:47:01;;;;;;;17.30;15.13;;;;;;;;;;9493873;30;20062;-66
2022/06/16 05:52:01;;;;;;;18.58;16.08;;;;;;;;;;9497021;30;20048;-67
2022/06/16 05:56:58;;;;;;;15.05;13.73;;;;;;;;;;9506886;30;20056;-68
2022/06/16 06:01:53;;;;;;;14.98;13.43;;;;;;;;;;9492958;30;20072;-68
2022/06/16 06:06:47;;;;;;;17.33;11.55;;;;;;;;;;9498418;30;20056;-67
2022/06/16 06:17:00;;;;;;;14.85;13.57;;;;;;;;;;9506697;30;20067;-67
2022/06/16 06:22:14;;;;;;;15.05;12.80;;;;;;;;;;9493736;30;20056;-67
2022/06/16 06:27:19;;;;;;;13.05;11.88;;;;;;;;;;9484222;30;20056;-67
2022/06/16 06:32:14;;;;;;;12.57;11.27;;;;;;;;;;9502508;30;20056;-68
2022/06/16 06:37:11;;;;;;;13.50;12.10;;;;;;;;;;9509963;30;20068;-67
2022/06/16 06:42:06;;;;;;;12.82;10.63;;;;;;;;;;9503769;30;20060;-68
2022/06/16 06:47:00;;;;;;;11.27;10.23;;;;;;;;;;9510545;30;20089;-68
2022/06/16 06:51:54;;;;;;;12.02;9.82;;;;;;;;;;9505922;30;20451;-68
2022/06/16 06:56:48;;;;;;;12.85;9.40;;;;;;;;;;9507607;30;20056;-67
2022/06/16 07:01:42;;;;;;;12.60;9.60;;;;;;;;;;9497953;30;20478;-69
2022/06/16 07:06:37;;;;;;;16.65;9.63;;;;;;;;;;9502715;30;20080;-67
2022/06/16 07:11:30;;;;;;;14.40;8.98;;;;;;;;;;9506419;30;20059;-66
2022/06/16 07:16:24;;;;;;;11.80;9.05;;;;;;;;;;9511974;30;20402;-69
2022/06/16 07:21:18;;;;;;;11.32;9.93;;;;;;;;;;9506896;30;20066;-68
2022/06/16 07:26:12;;;;;;;10.60;9.48;;;;;;;;;;9507117;30;20044;-75
2022/06/16 07:31:06;;;;;;;11.52;8.32;;;;;;;;;;9506355;30;20066;-75
2022/06/16 07:36:21;;;;;;;10.13;9.15;;;;;;;;;;9509443;30;20071;-76
2022/06/16 07:41:34;;;;;;;10.55;9.10;;;;;;;;;;9504686;30;20060;-78
2022/06/16 07:46:28;;;;;;;9.73;8.02;;;;;;;;;;9504218;30;20052;-74
2022/06/16 07:51:22;;;;;;;12.95;7.45;;;;;;;;;;9505291;30;20056;-74
2022/06/16 07:56:16;;;;;;;15.70;8.30;;;;;;;;;;9506140;30;20048;-74
2022/06/16 08:01:10;;;;;;;8.25;7.45;;;;;;;;;;9503606;30;20074;-74
2022/06/16 08:06:12;;;;;;;14.80;7.85;;;;;;;;;;9502205;30;20080;-74
2022/06/16 08:12:03;;;;;;;9.38;7.20;;;;;;;;;;9504145;30;20109;-74
2022/06/16 08:16:20;;;;;;;9.45;6.90;;;;;;;;;;9502050;30;20114;-74
2022/06/16 08:21:14;;;;;;;7.47;6.78;;;;;;;;;;9502704;30;20056;-74
2022/06/16 08:26:07;;;;;;;8.88;7.38;;;;;;;;;;9500681;30;20083;-74
2022/06/16 08:31:01;;;;;;;7.25;6.55;;;;;;;;;;9504881;30;20056;-74
2022/06/16 08:35:55;;;;;;;8.05;6.80;;;;;;;;;;9500584;30;20052;-74
2022/06/16 08:41:11;;;;;;;8.20;6.85;;;;;;;;;;9500411;30;20521;-74
2022/06/16 08:46:07;;;;;;;11.15;6.70;;;;;;;;;;9490242;30;20050;-75
2022/06/16 08:51:15;;;;;;;7.43;6.72;;;;;;;;;;9504994;30;20053;-76
2022/06/16 08:56:19;;;;;;;11.05;6.85;;;;;;;;;;9503203;30;20059;-74
2022/06/16 09:01:17;;;;;;;11.50;6.00;;;;;;;;;;9490511;30;20052;-73
2022/06/16 09:06:55;;;;;;;7.05;5.90;;;;;;;;;;9503342;30;20056;-74
2022/06/16 09:12:27;;;;;;;8.05;6.32;;;;;;;;;;9505083;30;20410;-74
2022/06/16 09:17:55;;;;;;;9.07;5.13;;;;;;;;;;9467524;30;20110;-75
2022/06/16 09:23:03;;;;;;;6.07;5.20;;;;;;;;;;9508890;30;20475;-75
2022/06/16 09:28:10;;;;;;;9.48;5.97;;;;;;;;;;9501741;30;20052;-76
2022/06/16 09:33:11;;;;;;;7.72;6.20;;;;;;;;;;9502885;30;20067;-75
2022/06/16 09:38:08;;;;;;;8.77;6.40;;;;;;;;;;9502540;30;20087;-76
2022/06/16 09:43:10;;;;;;;11.83;6.57;;;;;;;;;;9509463;30;20123;-76
2022/06/16 09:48:23;;;;;;;8.57;6.47;;;;;;;;;;9499120;30;20325;-77
2022/06/16 09:53:44;;;;;;;10.07;5.85;;;;;;;;;;9511542;30;20120;-75
2022/06/16 09:59:02;;;;;;;10.63;6.50;;;;;;;;;;9512914;30;20527;-76
2022/06/16 10:04:03;;;;;;;9.02;5.45;;;;;;;;;;9508887;30;20064;-74
2022/06/16 10:09:11;;;;;;;8.60;5.07;;;;;;;;;;9508567;30;20561;-75
2022/06/16 10:14:38;;;;;;;14.60;6.07;;;;;;;;;;9506945;30;20051;-74
2022/06/16 10:19:34;;;;;;;17.98;5.82;;;;;;;;;;9496595;30;20455;-75
2022/06/16 10:24:35;;;;;;;9.98;4.85;;;;;;;;;;9505154;30;20056;-74
2022/06/16 10:29:32;;;;;;;11.50;5.78;;;;;;;;;;9509241;30;20056;-73
2022/06/16 10:34:35;;;;;;;11.75;6.30;;;;;;;;;;9503442;30;20086;-73
2022/06/16 10:39:38;;;;;;;9.80;6.60;;;;;;;;;;9505814;30;20075;-74
2022/06/16 10:44:32;;;;;;;10.25;5.60;;;;;;;;;;9506744;30;20059;-75
2022/06/16 10:49:33;;;;;;;8.13;6.78;;;;;;;;;;9506954;30;20143;-74
2022/06/16 10:54:34;;;;;;;8.75;6.80;;;;;;;;;;9494761;30;20063;-78
2022/06/16 10:59:29;;;;;;;13.45;5.63;;;;;;;;;;9513543;30;20079;-76
2022/06/16 11:04:24;;;;;;;12.30;6.30;;;;;;;;;;9516702;30;20056;-77
2022/06/16 11:09:21;;;;;;;10.82;5.78;;;;;;;;;;9502884;30;20060;-75
2022/06/16 11:14:27;;;;;;;5.65;4.90;;;;;;;;;;9502341;30;20061;-76
2022/06/16 11:19:26;;;;;;;13.77;5.05;;;;;;;;;;9502044;30;20405;-75
2022/06/16 11:24:29;;;;;;;8.45;4.82;;;;;;;;;;9498627;30;20410;-74
2022/06/16 11:29:30;;;;;;;10.93;4.95;;;;;;;;;;9503747;30;20528;-73
2022/06/16 11:34:30;;;;;;;12.52;4.57;;;;;;;;;;9503085;30;20079;-75
2022/06/16 11:39:50;;;;;;;8.27;4.32;;;;;;;;;;9505465;30;20064;-75
2022/06/16 11:45:09;;;;;;;12.07;4.97;;;;;;;;;;9484348;30;20508;-74
2022/06/16 11:50:27;;;;;;;6.43;4.45;;;;;;;;;;9467746;30;20413;-75
2022/06/16 11:55:35;;;;;;;8.15;4.43;;;;;;;;;;9496384;30;20139;-74
2022/06/16 12:00:38;;;;;;;7.93;4.60;;;;;;;;;;9497154;30;20056;-74
2022/06/16 12:06:20;;;;;;;6.10;4.55;;;;;;;;;;9477509;30;20060;-74
2022/06/16 12:11:40;;;;;;;7.15;4.25;;;;;;;;;;9503020;30;20048;-73
2022/06/16 12:17:25;;;;;;;9.88;4.28;;;;;;;;;;9480935;30;20121;-74
2022/06/16 12:22:24;;;;;;;9.23;4.80;;;;;;;;;;9501377;30;20146;-72
2022/06/16 12:27:53;;;;;;;13.80;4.85;;;;;;;;;;9490126;30;20130;-75
2022/06/16 12:33:04;;;;;;;7.05;4.53;;;;;;;;;;9485162;30;20051;-74
2022/06/16 12:38:03;;;;;;;5.47;4.25;;;;;;;;;;9502818;30;20052;-75
2022/06/16 12:43:09;;;;;;;7.45;4.43;;;;;;;;;;9486783;30;20091;-74
2022/06/16 12:48:09;;;;;;;7.53;4.70;;;;;;;;;;9488557;30;20058;-74
2022/06/16 12:53:13;;;;;;;7.72;4.28;;;;;;;;;;9502783;30;20416;-74
2022/06/16 12:58:29;;;;;;;11.30;4.30;;;;;;;;;;9491508;30;20465;-74
2022/06/16 13:03:34;;;;;;;11.18;4.97;;;;;;;;;;9486756;30;20531;-76
2022/06/16 13:08:31;;;;;;;8.85;4.22;;;;;;;;;;9499561;30;20524;-74
2022/06/16 13:13:33;;;;;;;8.20;4.28;;;;;;;;;;9499350;30;20460;-75
2022/06/16 13:18:49;;;;;;;10.10;4.57;;;;;;;;;;9499533;30;20048;-73
2022/06/16 13:23:55;;;;;;;5.10;4.15;;;;;;;;;;9497773;30;20052;-75
2022/06/16 13:29:06;;;;;;;8.82;4.72;;;;;;;;;;9505083;30;20113;-74
2022/06/16 13:33:59;;;;;;;8.60;4.13;;;;;;;;;;9508426;30;20056;-74
2022/06/16 13:38:54;;;;;;;10.48;4.70;;;;;;;;;;9508681;30;20064;-74
2022/06/16 13:44:09;;;;;;;4.90;4.40;;;;;;;;;;9506643;30;20127;-75
2022/06/16 13:49:05;;;;;;;8.77;4.55;;;;;;;;;;9510932;30;20060;-75
2022/06/16 13:53:58;;;;;;;10.93;4.70;;;;;;;;;;9509229;30;20048;-75
2022/06/16 13:58:51;;;;;;;12.25;4.82;;;;;;;;;;9494268;30;20091;-75
2022/06/16 14:04:09;;;;;;;8.15;4.55;;;;;;;;;;9507138;30;20082;-76
2022/06/16 14:09:14;;;;;;;6.32;4.80;;;;;;;;;;9505760;30;20060;-75
2022/06/16 14:14:21;;;;;;;9.13;4.70;;;;;;;;;;9509465;30;20413;-75
2022/06/16 14:19:35;;;;;;;10.75;5.30;;;;;;;;;;9507863;30;20121;-75
2022/06/16 14:24:54;;;;;;;7.90;4.50;;;;;;;;;;9509497;30;20143;-74
2022/06/16 14:29:48;;;;;;;12.23;5.40;;;;;;;;;;9495328;30;20109;-74
2022/06/16 14:34:51;;;;;;;8.35;4.65;;;;;;;;;;9507990;30;20064;-74
2022/06/16 14:40:28;;;;;;;15.18;5.80;;;;;;;;;;9507112;30;20056;-75
2022/06/16 14:45:30;;;;;;;;;;;;;;;;;;9493768;30;20110;-75
2022/06/16 14:50:27;;;;;;;11.25;5.07;;;;;;;;;;9508644;30;20012;-77
2022/06/16 14:55:28;;;;;;;7.07;5.43;;;;;;;;;;9509705;30;20048;-76
2022/06/16 15:00:28;;;;;;;13.02;5.32;;;;;;;;;;9507374;30;20076;-78
2022/06/16 15:05:22;;;;;;;12.18;5.03;;;;;;;;;;9487676;30;20128;-78
2022/06/16 15:10:19;;;;;;;10.65;5.25;;;;;;;;;;9506873;30;20530;-78
2022/06/16 15:15:22;;;;;;;11.63;5.97;;;;;;;;;;9505869;30;20052;-76
2022/06/16 15:20:17;;;;;;;10.40;5.32;;;;;;;;;;9506768;30;20592;-71
2022/06/16 15:25:14;;;;;;;8.50;5.63;;;;;;;;;;9504300;30;20457;-79
2022/06/16 15:30:32;;;;;;;10.90;5.15;;;;;;;;;;9503599;30;20095;-76
2022/06/16 15:40:40;;;;;;;10.20;5.00;;;;;;;;;;9505678;30;20052;-78
2022/06/16 15:45:36;;;;;;;8.90;5.37;;;;;;;;;;9495773;30;20075;-77
2022/06/16 15:50:30;;;;;;;9.93;5.55;;;;;;;;;;9490476;30;20056;-78
2022/06/16 15:55:49;;;;;;;8.23;5.55;;;;;;;;;;9503680;30;20060;-76
2022/06/16 16:00:44;;;;;;;19.85;6.07;;;;;;;;;;9486523;30;20060;-76
2022/06/16 16:05:40;;;;;;;12.07;5.88;;;;;;;;;;9503665;30;20087;-73
2022/06/16 16:10:33;;;;;;;12.27;5.55;;;;;;;;;;9502611;30;20056;-75
2022/06/16 16:15:27;;;;;;;12.50;6.63;;;;;;;;;;9485040;30;20476;-75
2022/06/16 16:20:20;;;;;;;6.38;5.68;;;;;;;;;;9503601;30;20132;-76
2022/06/16 16:25:14;;;;;;;11.57;5.90;;;;;;;;;;9502073;30;20530;-76
2022/06/16 16:30:15;;;;;;;14.00;6.55;;;;;;;;;;9499745;30;20070;-77
2022/06/16 16:35:12;;;;;;;10.20;6.07;;;;;;;;;;9491461;30;20058;-76
2022/06/16 16:40:15;;;;;;;11.75;7.00;;;;;;;;;;9490585;30;20070;-75
2022/06/16 16:45:25;;;;;;;9.40;6.47;;;;;;;;;;9502111;30;20056;-74
2022/06/16 16:50:20;;;;;;;13.02;6.00;;;;;;;;;;9500990;30;20064;-75
2022/06/16 16:55:17;;;;;;;12.13;7.22;;;;;;;;;;9502596;30;20581;-75
2022/06/16 17:00:36;;;;;;;8.88;6.00;;;;;;;;;;9493613;30;20059;-75
2022/06/16 17:05:32;;;;;;;10.57;7.03;;;;;;;;;;9507045;30;20143;-74
2022/06/16 17:10:29;;;;;;;10.48;6.20;;;;;;;;;;9494934;30;20090;-74
2022/06/16 17:15:24;;;;;;;15.00;6.45;;;;;;;;;;9496816;30;20472;-75
2022/06/16 17:20:20;;;;;;;10.32;6.28;;;;;;;;;;9509781;30;20070;-75
2022/06/16 17:25:16;;;;;;;14.90;6.20;;;;;;;;;;9513292;30;20048;-74
2022/06/16 17:30:15;;;;;;;14.30;6.57;;;;;;;;;;9515373;30;20052;-74
2022/06/16 17:35:19;;;;;;;13.38;7.40;;;;;;;;;;9510640;30;20044;-74
2022/06/16 17:40:32;;;;;;;11.88;7.05;;;;;;;;;;9503675;30;20056;-76
2022/06/16 17:45:29;;;;;;;8.48;6.75;;;;;;;;;;9488531;30;20063;-75
2022/06/16 17:50:23;;;;;;;10.05;7.28;;;;;;;;;;9510367;30;20048;-74
2022/06/16 18:00:31;;;;;;;18.33;8.60;;;;;;;;;;9494887;30;20048;-76
2022/06/16 18:05:24;;;;;;;13.90;7.22;;;;;;;;;;9508898;30;20171;-74
2022/06/16 18:10:24;;;;;;;13.13;7.45;;;;;;;;;;9514626;30;20071;-75
2022/06/16 18:15:23;;;;;;;11.27;8.10;;;;;;;;;;9508916;30;20139;-75
2022/06/16 18:20:20;;;;;;;12.00;7.57;;;;;;;;;;9512099;30;20109;-76
2022/06/16 18:25:20;;;;;;;12.25;7.28;;;;;;;;;;9508942;30;20056;-76
2022/06/16 18:30:16;;;;;;;13.23;7.18;;;;;;;;;;9497132;30;20052;-73
2022/06/16 18:35:17;;;;;;;30.23;9.32;;;;;;;;;;9493328;30;20483;-71
2022/06/16 18:40:11;;;;;;;9.10;7.60;;;;;;;;;;9504091;30;20064;-71
2022/06/16 18:45:07;;;;;;;8.93;8.02;;;;;;;;;;9504958;30;20059;-72
2022/06/16 18:50:00;;;;;;;23.98;9.07;;;;;;;;;;9504417;30;20110;-71
2022/06/16 18:54:55;;;;;;;12.50;8.43;;;;;;;;;;9504698;30;20064;-70
2022/06/16 18:59:49;;;;;;;15.10;8.35;;;;;;;;;;9505169;30;20409;-71
2022/06/16 19:04:44;;;;;;;16.40;9.43;;;;;;;;;;9504258;30;20135;-73
2022/06/16 19:09:37;;;;;;;13.90;9.23;;;;;;;;;;9505949;30;20497;-72
2022/06/16 19:14:30;;;;;;;11.52;8.85;;;;;;;;;;9505364;30;20596;-73
2022/06/16 19:19:24;;;;;;;10.93;8.77;;;;;;;;;;9505399;30;20059;-75
2022/06/16 19:24:28;;;;;;;13.90;8.80;;;;;;;;;;9490115;30;20064;-71
2022/06/16 19:29:22;;;;;;;14.43;9.23;;;;;;;;;;9502577;30;20065;-71
2022/06/16 19:34:16;;;;;;;15.63;9.70;;;;;;;;;;9503560;30;20113;-73
2022/06/16 19:39:15;;;;;;;17.88;9.43;;;;;;;;;;9503666;30;20143;-72
2022/06/16 19:54:42;;;;;;;13.73;9.95;;;;;;;;;;9500973;30;20059;-75
2022/06/16 19:59:37;;;;;;;26.13;10.65;;;;;;;;;;9502555;30;20151;-76
2022/06/16 20:04:30;;;;;;;17.58;11.40;;;;;;;;;;9500464;30;20052;-73
2022/06/16 20:09:24;;;;;;;12.32;8.48;;;;;;;;;;9498361;30;20106;-73
2022/06/16 20:14:18;;;;;;;14.23;9.02;;;;;;;;;;9501750;30;20080;-73
2022/06/16 20:19:12;;;;;;;14.98;10.82;;;;;;;;;;9500682;30;20059;-71
2022/06/16 20:24:07;;;;;;;16.50;12.40;;;;;;;;;;9504000;30;20109;-72
2022/06/16 20:29:02;;;;;;;13.48;11.25;;;;;;;;;;9491909;30;20440;-72
2022/06/16 20:33:57;;;;;;;18.05;11.10;;;;;;;;;;9502242;30;20087;-72
2022/06/16 20:38:51;;;;;;;19.88;10.20;;;;;;;;;;9500632;30;20205;-74
2022/06/16 20:43:45;;;;;;;11.68;10.60;;;;;;;;;;9487070;30;20060;-77
2022/06/16 20:48:42;;;;;;;14.55;10.00;;;;;;;;;;9500696;30;20136;-75
2022/06/16 20:53:37;;;;;;;25.80;10.80;;;;;;;;;;9485441;30;20060;-75
2022/06/16 21:03:43;;;;;;;15.85;11.63;;;;;;;;;;9502265;30;20447;-74
2022/06/16 21:08:37;;;;;;;15.05;11.75;;;;;;;;;;9494379;30;20052;-77
2022/06/16 21:13:31;;;;;;;19.90;13.07;;;;;;;;;;9503405;30;20167;-78
2022/06/16 21:18:25;;;;;;;17.25;13.30;;;;;;;;;;9501467;30;20069;-76
2022/06/16 21:23:21;;;;;;;25.73;15.48;;;;;;;;;;9502196;30;20040;-76
2022/06/16 21:28:17;;;;;;;35.30;16.10;;;;;;;;;;9503621;30;20056;-76
2022/06/16 21:33:10;;;;;;;16.45;13.40;;;;;;;;;;9502911;30;20106;-77
2022/06/16 21:38:06;;;;;;;20.95;12.13;;;;;;;;;;9489426;30;20052;-77
2022/06/16 21:43:02;;;;;;;16.67;14.90;;;;;;;;;;9503741;30;20099;-77
2022/06/16 21:48:00;;;;;;;19.58;14.45;;;;;;;;;;9503437;30;20083;-79
2022/06/16 21:52:55;;;;;;;22.73;19.85;;;;;;;;;;9507719;30;20076;-80
2022/06/16 21:57:48;;;;;;;21.55;16.85;;;;;;;;;;9494295;30;20122;-77
2022/06/16 22:02:44;;;;;;;19.00;17.17;;;;;;;;;;9512368;30;20095;-79
2022/06/16 22:07:38;;;;;;;18.85;16.88;;;;;;;;;;9509076;30;20159;-78
2022/06/16 22:12:33;;;;;;;17.40;15.60;;;;;;;;;;9509783;30;20505;-78
2022/06/16 22:17:29;;;;;;;16.27;14.35;;;;;;;;;;9510060;30;20067;-76
2022/06/16 22:22:25;;;;;;;14.55;12.57;;;;;;;;;;9509495;30;20063;-78
2022/06/16 22:27:20;;;;;;;24.15;18.55;;;;;;;;;;9510831;30;20523;-77
2022/06/16 22:32:17;;;;;;;30.95;22.83;;;;;;;;;;9509247;30;20749;-78
2022/06/16 22:37:11;;;;;;;23.05;20.52;;;;;;;;;;9509472;30;20055;-77
2022/06/16 22:42:04;;;;;;;23.92;21.08;;;;;;;;;;9509835;30;20522;-78
2022/06/16 22:46:57;;;;;;;22.65;20.50;;;;;;;;;;9494031;30;20067;-77
2022/06/16 22:51:53;;;;;;;26.38;20.77;;;;;;;;;;9509662;30;20056;-77
2022/06/16 22:56:49;;;;;;;23.48;19.05;;;;;;;;;;9507307;30;20128;-76
2022/06/16 23:01:45;;;;;;;25.23;22.70;;;;;;;;;;9506737;30;20060;-76
2022/06/16 23:06:47;;;;;;;29.23;21.08;;;;;;;;;;9511854;30;20044;-76
2022/06/16 23:11:41;;;;;;;29.30;26.63;;;;;;;;;;9492551;30;20094;-77
2022/06/16 23:16:36;;;;;;;27.73;24.77;;;;;;;;;;9507980;30;20060;-76
2022/06/16 23:21:35;;;;;;;25.13;22.00;;;;;;;;;;9510573;30;20048;-77
2022/06/16 23:26:31;;;;;;;25.35;23.05;;;;;;;;;;9509416;30;20626;-77
2022/06/16 23:31:26;;;;;;;21.73;19.98;;;;;;;;;;9491339;30;20059;-77
2022/06/16 23:36:21;;;;;;;19.95;17.73;;;;;;;;;;9514390;30;20067;-78
2022/06/16 23:41:17;;;;;;;18.38;16.13;;;;;;;;;;9529755;30;20067;-73
2022/06/16 23:46:15;;;;;;;19.05;17.02;;;;;;;;;;9518281;30;20076;-75
2022/06/16 23:51:19;;;;;;;26.70;18.30;;;;;;;;;;9503273;30;20056;-74
2022/06/16 23:56:21;;;;;;;16.35;14.73;;;;;;;;;;9496656;30;20083;-74
